Time;durP1;ratioP1;P1;durP2;ratioP2;P2;SDS_P1;SDS_P2;PMS_P1;PMS_P2;Temp;Humidity;BMP_temperature;BMP_pressure;BME280_temperature;BME280_humidity;BME280_pressure;Samples;Min_cycle;Max_cycle;Signal;HPM_P1;HPM_P2
2022/04/21 00:01:52;;;;;;;3.50;3.10;;;;;;;18.95;35.74;100570.23;1768905;80;21510;-59
2022/04/21 00:04:20;;;;;;;4.40;3.10;;;;;;;18.95;35.73;100572.17;1768483;80;21370;-59
2022/04/21 00:06:48;;;;;;;4.47;3.20;;;;;;;18.94;35.73;100568.59;1768989;80;20946;-59
2022/04/21 00:09:16;;;;;;;3.98;3.10;;;;;;;18.94;35.70;100570.53;1768311;80;20934;-59
2022/04/21 00:11:44;;;;;;;3.58;3.10;;;;;;;18.93;35.73;100568.33;1768550;80;20986;-59
2022/04/21 00:14:12;;;;;;;3.45;3.15;;;;;;;18.93;35.70;100563.38;1764766;81;20937;-59
2022/04/21 00:16:39;;;;;;;3.70;3.02;;;;;;;18.92;35.71;100569.48;1768530;80;21341;-59
2022/04/21 00:19:07;;;;;;;2.85;2.65;;;;;;;18.91;35.71;100558.20;1768519;80;20937;-59
2022/04/21 00:23:25;;;;;;;3.83;3.30;;;;;;;18.91;35.70;100554.06;1768657;80;20933;-59
2022/04/21 00:24:06;;;;;;;4.30;3.37;;;;;;;18.90;35.71;100557.94;1761417;81;20926;-59
2022/04/21 00:26:34;;;;;;;3.47;3.17;;;;;;;18.90;35.69;100560.70;1743073;81;20902;-59
2022/04/21 00:29:02;;;;;;;3.33;3.02;;;;;;;18.90;35.71;100566.21;1764768;81;20902;-59
2022/04/21 00:31:30;;;;;;;4.25;3.37;;;;;;;18.90;35.70;100568.14;1768242;80;20965;-59
2022/04/21 00:33:58;;;;;;;3.87;3.10;;;;;;;18.91;35.70;100562.89;1768678;80;20934;-59
2022/04/21 00:36:26;;;;;;;4.67;3.10;;;;;;;18.90;35.69;100564.02;1768212;80;20934;-59
2022/04/21 00:38:54;;;;;;;4.62;3.37;;;;;;;18.89;35.70;100570.08;1768621;80;20907;-59
2022/04/21 00:41:21;;;;;;;3.47;3.17;;;;;;;18.89;35.66;100570.08;1764571;81;20957;-59
2022/04/21 00:43:49;;;;;;;3.77;3.02;;;;;;;18.89;35.68;100572.02;1764315;81;20994;-59
2022/04/21 00:46:23;;;;;;;5.25;3.30;;;;;;;18.89;35.68;100572.84;1768720;80;22007;-59
2022/04/21 00:48:51;;;;;;;6.00;3.25;;;;;;;18.88;35.64;100575.93;1768332;80;21382;-59
2022/04/21 00:51:19;;;;;;;4.00;3.12;;;;;;;18.88;35.64;100582.82;1769187;80;21041;-59
2022/04/21 00:53:47;;;;;;;4.65;3.00;;;;;;;18.88;35.65;100575.93;1768596;80;20859;-59
2022/04/21 00:56:15;;;;;;;3.65;3.02;;;;;;;18.87;35.65;100576.48;1775412;80;20933;-59
2022/04/21 00:58:44;;;;;;;4.20;3.02;;;;;;;18.86;35.65;100578.17;1774928;80;20965;-59
2022/04/21 01:02:46;;;;;;;3.95;3.30;;;;;;;18.85;35.64;100587.00;1741706;80;21291;-59
2022/04/21 01:03:42;;;;;;;4.75;3.00;;;;;;;18.85;35.64;100584.23;1767776;80;21020;-59
2022/04/21 01:06:10;;;;;;;3.75;2.98;;;;;;;18.85;35.64;100596.64;1775066;80;20926;-59
2022/04/21 01:08:38;;;;;;;3.22;2.92;;;;;;;18.85;35.64;100593.89;1774655;80;20851;-59
2022/04/21 01:11:06;;;;;;;3.37;2.90;;;;;;;18.84;35.65;100594.22;1770987;80;20937;-59
2022/04/21 01:13:34;;;;;;;3.20;2.80;;;;;;;18.83;35.65;100587.06;1769080;80;21011;-59
2022/04/21 01:16:03;;;;;;;3.77;3.08;;;;;;;18.83;35.62;100589.27;1739224;81;20912;-59
2022/04/21 01:18:31;;;;;;;3.95;3.00;;;;;;;18.82;35.65;100584.87;1763457;81;20947;-59
2022/04/21 01:20:59;;;;;;;3.37;3.00;;;;;;;18.82;35.65;100583.49;1762487;81;20979;-59
2022/04/21 01:23:27;;;;;;;3.77;2.87;;;;;;;18.83;35.64;100589.82;1762493;81;20955;-59
2022/04/21 01:25:55;;;;;;;4.28;3.00;;;;;;;18.81;35.62;100580.47;1762897;81;20932;-59
2022/04/21 01:28:25;;;;;;;4.75;3.40;;;;;;;18.83;35.60;100578.23;1762933;81;20912;-59
2022/04/21 01:30:56;;;;;;;4.60;3.00;;;;;;;18.83;35.62;100579.61;1763133;81;21333;-59
2022/04/21 01:33:28;;;;;;;3.62;2.92;;;;;;;18.82;35.61;100590.38;1762868;81;20948;-59
2022/04/21 01:35:55;;;;;;;2.95;2.65;;;;;;;18.82;35.60;100597.83;1763064;81;21035;-59
2022/04/21 01:41:09;;;;;;;2.98;2.60;;;;;;;18.81;35.60;100605.28;1763153;81;20988;-59
2022/04/21 01:43:41;;;;;;;2.98;2.60;;;;;;;18.82;35.58;100615.75;1762725;81;20967;-59
2022/04/21 01:46:10;;;;;;;4.30;3.27;;;;;;;18.80;35.60;100622.15;1763085;81;20944;-59
2022/04/21 01:48:38;;;;;;;3.27;2.90;;;;;;;18.81;35.59;100610.80;1763032;81;21376;-59
2022/04/21 01:51:06;;;;;;;3.95;3.42;;;;;;;18.79;35.60;100624.09;1762915;81;21404;-59
2022/04/21 01:53:34;;;;;;;3.50;3.20;;;;;;;18.79;35.57;100619.95;1763251;81;21299;-60
2022/04/21 01:56:02;;;;;;;4.40;3.10;;;;;;;18.78;35.60;100614.73;1768446;80;20968;-60
2022/04/21 01:58:30;;;;;;;4.00;3.15;;;;;;;18.76;35.61;100619.17;1770009;80;20986;-59
2022/04/21 02:00:57;;;;;;;4.15;3.37;;;;;;;18.77;35.62;100615.86;1769572;80;20982;-60
2022/04/21 02:03:25;;;;;;;3.52;3.20;;;;;;;18.76;35.61;100621.92;1770002;80;20872;-59
2022/04/21 02:05:59;;;;;;;3.55;3.25;;;;;;;18.77;35.61;100619.98;1770031;80;20960;-59
2022/04/21 02:08:27;;;;;;;3.80;3.33;;;;;;;18.76;35.61;100621.11;1770014;80;20952;-60
2022/04/21 02:11:01;;;;;;;3.35;3.00;;;;;;;18.74;35.61;100626.13;1769842;80;20904;-59
2022/04/21 02:13:29;;;;;;;4.20;3.37;;;;;;;18.74;35.63;100628.33;1769632;80;20947;-59
2022/04/21 02:15:57;;;;;;;4.12;3.65;;;;;;;18.74;35.63;100620.06;1770003;80;20900;-59
2022/04/21 02:18:25;;;;;;;4.00;3.52;;;;;;;18.75;35.63;100630.52;1769812;80;20963;-59
2022/04/21 02:20:53;;;;;;;3.98;3.50;;;;;;;18.74;35.64;100629.70;1770006;80;20954;-59
2022/04/21 02:23:22;;;;;;;4.42;3.50;;;;;;;18.73;35.63;100636.33;1769883;80;21232;-59
2022/04/21 02:25:50;;;;;;;3.87;3.40;;;;;;;18.73;35.64;100635.52;1769941;80;20935;-60
2022/04/21 02:28:18;;;;;;;4.22;3.33;;;;;;;18.70;35.63;100632.83;1769895;80;20896;-60
2022/04/21 02:30:46;;;;;;;5.15;3.60;;;;;;;18.69;35.64;100633.94;1769924;80;20892;-60
2022/04/21 02:33:13;;;;;;;4.03;3.25;;;;;;;18.69;35.66;100629.25;1769915;80;20967;-60
2022/04/21 02:35:41;;;;;;;3.90;3.37;;;;;;;18.68;35.66;100632.30;1769856;80;20954;-60
2022/04/21 02:38:09;;;;;;;4.62;3.30;;;;;;;18.68;35.66;100632.30;1770262;80;20900;-59
2022/04/21 02:40:37;;;;;;;3.67;3.15;;;;;;;18.66;35.68;100628.50;1769662;80;20892;-59
2022/04/21 02:43:07;;;;;;;3.90;3.15;;;;;;;18.68;35.68;100630.92;1770190;80;20975;-59
2022/04/21 02:45:35;;;;;;;4.53;3.60;;;;;;;18.67;35.65;100630.11;1769880;80;21373;-59
2022/04/21 02:48:10;;;;;;;3.40;3.08;;;;;;;18.67;35.65;100631.48;1769822;80;20903;-59
2022/04/21 02:50:40;;;;;;;4.47;3.50;;;;;;;18.67;35.65;100637.58;1770124;80;20920;-59
2022/04/21 02:53:08;;;;;;;4.72;3.55;;;;;;;18.66;35.63;100640.08;1770164;80;20941;-59
2022/04/21 02:58:23;;;;;;;5.65;3.55;;;;;;;18.66;35.63;100642.28;1743814;80;21389;-59
2022/04/21 03:00:51;;;;;;;6.35;4.20;;;;;;;18.66;35.62;100646.97;1770108;80;20927;-59
2022/04/21 03:03:19;;;;;;;5.10;3.58;;;;;;;18.65;35.61;100642.58;1769729;80;20949;-59
2022/04/21 03:05:47;;;;;;;3.95;3.08;;;;;;;18.64;35.62;100636.80;1770151;80;21721;-59
2022/04/21 03:08:15;;;;;;;4.05;3.62;;;;;;;18.63;35.63;100643.43;1769876;80;21790;-59
2022/04/21 03:10:43;;;;;;;3.42;3.12;;;;;;;18.62;35.64;100639.89;1770151;80;21325;-59
2022/04/21 03:13:11;;;;;;;4.72;3.60;;;;;;;18.63;35.67;100639.30;1770356;80;21729;-59
2022/04/21 03:15:39;;;;;;;4.45;3.35;;;;;;;18.63;35.64;100642.87;1770031;80;21337;-59
2022/04/21 03:18:07;;;;;;;3.95;3.55;;;;;;;18.64;35.63;100643.69;1769981;80;21361;-60
2022/04/21 03:26:07;;;;;;;3.77;3.15;;;;;;;18.65;35.62;100648.91;1769759;80;20931;-59
2022/04/21 03:28:35;;;;;;;4.45;3.52;;;;;;;18.64;35.59;100643.69;1769938;80;21006;-59
2022/04/21 03:31:10;;;;;;;4.00;3.42;;;;;;;18.63;35.61;100639.30;1769892;80;20943;-60
2022/04/21 03:33:37;;;;;;;4.42;3.85;;;;;;;18.61;35.62;100648.45;1770042;80;20896;-59
2022/04/21 03:36:11;;;;;;;3.80;3.20;;;;;;;18.60;35.63;100647.63;1769942;80;20857;-59
2022/04/21 03:38:39;;;;;;;3.83;3.42;;;;;;;18.60;35.63;100647.63;1769862;80;20939;-59
2022/04/21 03:41:07;;;;;;;4.65;3.50;;;;;;;18.61;35.63;100645.13;1770025;80;20979;-59
2022/04/21 03:43:35;;;;;;;5.10;3.50;;;;;;;18.62;35.63;100652.84;1769844;80;20971;-59
2022/04/21 03:46:03;;;;;;;4.28;3.55;;;;;;;18.63;35.61;100665.47;1770003;80;21269;-59
2022/04/21 03:48:31;;;;;;;5.00;3.60;;;;;;;18.63;35.62;100664.09;1770115;80;20947;-59
2022/04/21 03:50:59;;;;;;;3.72;3.35;;;;;;;18.63;35.61;100659.96;1770235;80;20990;-60
2022/04/21 03:53:27;;;;;;;4.45;3.72;;;;;;;18.62;35.61;100668.00;1769833;80;20955;-60
2022/04/21 03:55:55;;;;;;;4.72;3.75;;;;;;;18.62;35.61;100677.64;1769752;80;20974;-60
2022/04/21 03:58:23;;;;;;;4.05;3.37;;;;;;;18.60;35.59;100680.69;1769913;80;20982;-59
2022/04/21 04:00:51;;;;;;;4.78;3.80;;;;;;;18.59;35.61;100676.30;1769860;80;20895;-59
2022/04/21 04:03:19;;;;;;;4.87;3.50;;;;;;;18.59;35.62;100676.86;1770090;80;20852;-60
2022/04/21 04:05:47;;;;;;;5.47;3.98;;;;;;;18.58;35.65;100676.63;1769995;80;20908;-59
2022/04/21 04:11:01;;;;;;;5.10;3.58;;;;;;;18.57;35.63;100676.36;1770333;80;21298;-60
2022/04/21 04:13:29;;;;;;;4.03;3.62;;;;;;;18.57;35.62;100670.30;1769820;80;21015;-59
2022/04/21 04:15:57;;;;;;;4.33;3.92;;;;;;;18.55;35.61;100667.02;1769989;80;20903;-59
2022/04/21 04:18:24;;;;;;;4.40;3.72;;;;;;;18.54;35.61;100673.64;1769835;80;21760;-59
2022/04/21 04:20:52;;;;;;;3.92;3.42;;;;;;;18.56;35.63;100680.23;1769985;80;20951;-59
2022/04/21 04:23:22;;;;;;;4.90;3.65;;;;;;;18.56;35.64;100666.45;1769902;80;21022;-59
2022/04/21 04:25:50;;;;;;;4.78;3.47;;;;;;;18.55;35.64;100664.27;1770357;80;21432;-59
2022/04/21 04:28:18;;;;;;;5.20;3.75;;;;;;;18.56;35.61;100666.45;1770142;80;21403;-59
2022/04/21 04:30:46;;;;;;;4.37;3.92;;;;;;;18.55;35.64;100664.27;1769943;80;20972;-59
2022/04/21 04:33:15;;;;;;;4.28;3.60;;;;;;;18.54;35.62;100661.24;1770147;80;21325;-60
2022/04/21 04:35:44;;;;;;;4.40;4.00;;;;;;;18.55;35.61;100657.37;1769766;80;20900;-59
2022/04/21 04:38:14;;;;;;;4.70;4.00;;;;;;;18.56;35.61;100663.70;1769786;80;20939;-59
2022/04/21 04:40:41;;;;;;;5.25;3.95;;;;;;;18.57;35.60;100655.70;1770227;80;21006;-60
2022/04/21 04:43:09;;;;;;;5.87;4.15;;;;;;;18.55;35.60;100667.02;1770158;80;20979;-59
2022/04/21 04:48:30;;;;;;;6.67;4.00;;;;;;;18.54;35.64;100657.11;1770192;80;21022;-59
2022/04/21 04:50:59;;;;;;;5.83;3.87;;;;;;;18.55;35.66;100656.55;1770361;80;21493;-60
2022/04/21 04:53:26;;;;;;;5.12;3.87;;;;;;;18.55;35.66;100649.66;1770433;80;21309;-59
2022/04/21 04:55:55;;;;;;;4.85;4.10;;;;;;;18.55;35.68;100657.93;1768142;80;21421;-59
2022/04/21 04:58:23;;;;;;;4.85;3.52;;;;;;;18.56;35.74;100660.39;1760348;81;21342;-59
2022/04/21 05:00:51;;;;;;;4.60;3.52;;;;;;;18.58;35.77;100657.34;1706589;84;21345;-60
2022/04/21 05:03:19;;;;;;;7.30;3.30;;;;;;;18.61;35.83;100666.36;1703499;84;21326;-59
2022/04/21 05:05:47;;;;;;;4.67;3.37;;;;;;;18.64;35.85;100658.84;1703155;84;21365;-60
2022/04/21 05:08:15;;;;;;;4.62;3.08;;;;;;;18.68;35.86;100663.99;1703403;84;21413;-60
2022/04/21 05:10:43;;;;;;;3.90;3.12;;;;;;;18.74;35.86;100664.16;1703406;84;21342;-60
2022/04/21 05:13:11;;;;;;;4.03;3.20;;;;;;;18.81;35.82;100667.86;1703308;82;21274;-59
2022/04/21 05:15:39;;;;;;;6.58;4.08;;;;;;;18.87;35.80;100664.70;1703485;84;21396;-60
2022/04/21 05:18:08;;;;;;;5.20;3.45;;;;;;;18.95;35.75;100666.72;1703203;84;21031;-59
2022/04/21 05:20:37;;;;;;;5.62;3.98;;;;;;;19.03;35.69;100667.36;1703603;84;20880;-59
2022/04/21 05:23:07;;;;;;;7.72;4.17;;;;;;;19.12;35.62;100666.06;1703410;84;20936;-60
2022/04/21 05:25:40;;;;;;;5.58;3.40;;;;;;;19.21;35.51;100677.99;1739477;81;20871;-60
2022/04/21 05:28:10;;;;;;;5.15;3.70;;;;;;;19.30;35.44;100675.31;1747236;81;20910;-59
2022/04/21 05:30:58;;;;;;;5.05;3.72;;;;;;;19.40;35.35;100679.19;1739548;81;21394;-60
2022/04/21 05:33:27;;;;;;;5.83;3.42;;;;;;;19.48;35.27;100674.33;1736886;81;21006;-59
2022/04/21 05:35:57;;;;;;;4.80;3.55;;;;;;;19.55;35.17;100672.78;1738171;82;20946;-59
2022/04/21 05:38:26;;;;;;;5.60;3.10;;;;;;;19.63;35.10;100676.73;1736238;82;20996;-60
2022/04/21 05:40:55;;;;;;;5.30;3.55;;;;;;;19.70;35.02;100674.33;1735824;82;20946;-60
2022/04/21 05:43:30;;;;;;;6.37;3.52;;;;;;;19.75;34.97;100683.88;1735985;82;20967;-60
2022/04/21 05:45:59;;;;;;;6.78;3.40;;;;;;;19.80;34.93;100680.17;1734236;82;21001;-60
2022/04/21 05:48:28;;;;;;;5.05;3.45;;;;;;;19.84;34.86;100681.17;1734557;82;21238;-60
2022/04/21 05:50:57;;;;;;;4.37;3.45;;;;;;;19.88;34.83;100684.37;1734359;82;20903;-60
2022/04/21 05:53:26;;;;;;;6.33;3.72;;;;;;;19.93;34.78;100695.28;1734652;82;20945;-60
2022/04/21 05:55:55;;;;;;;4.45;3.55;;;;;;;19.96;34.74;100685.55;1734819;82;20977;-60
2022/04/21 05:58:24;;;;;;;4.97;4.03;;;;;;;20.00;34.70;100686.54;1736130;82;20937;-60
2022/04/21 06:00:53;;;;;;;7.72;3.75;;;;;;;20.02;34.66;100690.63;1748459;80;20865;-60
2022/04/21 06:03:22;;;;;;;5.37;3.80;;;;;;;20.05;34.65;100687.23;1800513;79;20981;-60
2022/04/21 06:05:50;;;;;;;5.03;3.60;;;;;;;20.09;34.61;100695.69;1800804;79;21012;-59
2022/04/21 06:08:18;;;;;;;4.42;3.70;;;;;;;20.13;34.58;100698.63;1793168;79;20931;-59
2022/04/21 06:10:46;;;;;;;7.00;3.87;;;;;;;20.15;34.56;100693.62;1767723;79;21325;-58
2022/04/21 06:13:15;;;;;;;7.17;3.45;;;;;;;20.17;34.56;100705.15;1764641;79;20942;-59
2022/04/21 06:15:43;;;;;;;5.53;3.47;;;;;;;20.20;34.56;100704.53;1755533;80;20961;-58
2022/04/21 06:18:11;;;;;;;4.72;3.45;;;;;;;20.21;34.61;100700.62;1761722;79;20966;-58
2022/04/21 06:20:40;;;;;;;6.70;3.35;;;;;;;20.24;34.61;100706.91;1764293;79;20992;-58
2022/04/21 06:23:08;;;;;;;7.42;3.67;;;;;;;20.24;34.66;100707.70;1757762;79;20989;-58
2022/04/21 06:25:36;;;;;;;5.67;3.42;;;;;;;20.26;34.68;100708.78;1764328;79;22057;-58
2022/04/21 06:28:04;;;;;;;5.50;3.85;;;;;;;20.28;34.70;100710.67;1766518;79;21001;-58
2022/04/21 06:30:33;;;;;;;5.67;3.90;;;;;;;20.30;34.70;100705.66;1760079;80;20949;-59
2022/04/21 06:33:01;;;;;;;7.47;3.70;;;;;;;20.30;34.71;100709.23;1768096;80;21004;-58
2022/04/21 06:35:29;;;;;;;7.05;4.08;;;;;;;20.32;34.73;100708.37;1758521;80;20969;-58
2022/04/21 06:37:57;;;;;;;6.67;4.30;;;;;;;20.33;34.75;100703.62;1750950;80;20981;-58
2022/04/21 06:40:25;;;;;;;8.00;4.20;;;;;;;20.35;34.77;100709.67;1766291;79;21011;-58
2022/04/21 06:42:53;;;;;;;9.08;4.28;;;;;;;20.37;34.81;100708.20;1768031;79;20953;-58
2022/04/21 06:48:10;;;;;;;6.78;4.12;;;;;;;20.40;34.84;100713.68;1750701;80;20981;-58
2022/04/21 06:50:41;;;;;;;7.60;4.15;;;;;;;20.39;34.85;100712.05;1772004;79;20972;-58
2022/04/21 06:53:09;;;;;;;4.92;4.00;;;;;;;20.40;34.91;100711.73;1772515;80;21004;-58
2022/04/21 06:55:37;;;;;;;8.15;3.87;;;;;;;20.38;34.98;100709.02;1771557;80;20929;-58
2022/04/21 06:58:06;;;;;;;5.80;3.60;;;;;;;20.38;35.01;100710.41;1782340;79;20953;-58
2022/04/21 07:00:33;;;;;;;7.05;3.87;;;;;;;20.35;35.09;100712.43;1771154;79;21009;-58
2022/04/21 07:03:01;;;;;;;6.00;3.83;;;;;;;20.33;35.16;100710.54;1758230;80;21017;-58
2022/04/21 07:05:30;;;;;;;9.15;4.25;;;;;;;20.31;35.26;100706.73;1766587;80;21013;-58
2022/04/21 07:07:57;;;;;;;9.45;4.12;;;;;;;20.30;35.31;100711.18;1768051;80;20973;-58
2022/04/21 07:10:25;;;;;;;9.35;4.22;;;;;;;20.28;35.40;100714.81;1774618;79;20949;-58
2022/04/21 07:12:54;;;;;;;8.43;4.20;;;;;;;20.26;35.45;100721.20;1777396;79;21247;-58
2022/04/21 07:15:21;;;;;;;12.13;3.80;;;;;;;20.23;35.50;100713.56;1766003;80;20992;-58
2022/04/21 07:17:49;;;;;;;12.40;4.05;;;;;;;20.20;35.56;100712.23;1767601;79;21211;-58
2022/04/21 07:20:17;;;;;;;7.62;4.08;;;;;;;20.19;35.67;100717.53;1767267;78;21059;-58
2022/04/21 07:35:44;;;;;;;9.73;4.62;;;;;;;20.80;35.78;100722.19;1811590;78;22683;-59
2022/04/21 07:38:12;;;;;;;9.08;4.72;;;;;;;20.64;35.91;100725.71;1819878;77;20959;-59
2022/04/21 07:40:41;;;;;;;7.72;4.65;;;;;;;20.55;35.94;100713.80;1797961;79;21359;-59
2022/04/21 07:43:09;;;;;;;8.48;4.37;;;;;;;20.47;36.00;100719.55;1790836;79;22377;-59
2022/04/21 07:45:41;;;;;;;7.12;4.40;;;;;;;20.41;36.02;100720.84;1794061;77;21743;-59
2022/04/21 07:48:09;;;;;;;7.40;4.17;;;;;;;20.34;36.10;100721.84;1791496;78;20988;-59
2022/04/21 07:50:37;;;;;;;12.15;4.55;;;;;;;20.28;36.16;100720.34;1807436;78;20983;-59
2022/04/21 07:53:14;;;;;;;9.05;4.17;;;;;;;20.24;36.21;100724.87;1792182;78;20904;-58
2022/04/21 07:55:44;;;;;;;11.08;4.40;;;;;;;20.21;36.26;100719.95;1787501;80;20955;-58
2022/04/21 07:58:12;;;;;;;9.10;4.12;;;;;;;20.15;36.34;100711.02;1795306;78;21027;-58
2022/04/21 08:00:40;;;;;;;10.48;4.50;;;;;;;20.13;36.47;100713.82;1806995;78;21534;-58
2022/04/21 08:03:09;;;;;;;10.58;4.45;;;;;;;20.12;36.50;100720.47;1786873;78;21363;-58
2022/04/21 08:05:37;;;;;;;11.80;4.70;;;;;;;20.08;36.52;100720.29;1781803;80;21002;-58
2022/04/21 08:08:11;;;;;;;10.58;5.30;;;;;;;20.05;36.58;100716.23;1807476;78;20986;-58
2022/04/21 08:10:38;;;;;;;12.75;5.40;;;;;;;20.02;36.59;100709.14;1786617;78;20948;-58
2022/04/21 08:13:06;;;;;;;10.55;5.72;;;;;;;20.00;36.62;100709.45;1803976;78;20901;-59
2022/04/21 08:15:35;;;;;;;9.05;4.83;;;;;;;19.98;36.65;100702.06;1805311;77;20932;-58
2022/04/21 08:18:04;;;;;;;10.60;5.03;;;;;;;19.97;36.76;100703.19;1849760;77;20841;-58
2022/04/21 08:20:34;;;;;;;11.80;5.25;;;;;;;19.98;36.87;100701.24;1833828;75;20946;-58
2022/04/21 08:23:02;;;;;;;9.88;6.30;;;;;;;19.99;36.97;100708.37;1808996;77;20923;-58
2022/04/21 08:33:49;;;;;;;8.35;5.58;;;;;;;19.93;36.84;100686.18;1793250;78;21373;-58
2022/04/21 08:36:18;;;;;;;11.68;5.97;;;;;;;19.91;36.85;100685.11;1786938;78;21374;-58
2022/04/21 08:38:47;;;;;;;10.03;6.87;;;;;;;19.91;36.88;100684.28;1750427;81;20888;-58
2022/04/21 08:41:18;;;;;;;8.38;6.70;;;;;;;19.90;36.87;100679.33;1750518;81;20932;-58
2022/04/21 08:43:47;;;;;;;10.48;6.20;;;;;;;19.87;36.87;100681.34;1750994;81;20825;-58
2022/04/21 08:46:20;;;;;;;10.35;7.35;;;;;;;19.86;36.90;100672.81;1753274;81;20845;-58
2022/04/21 08:48:48;;;;;;;10.40;7.33;;;;;;;19.86;36.89;100678.92;1749830;81;20880;-58
2022/04/21 08:51:18;;;;;;;14.80;7.65;;;;;;;19.83;36.90;100670.69;1749807;81;21989;-58
2022/04/21 08:53:46;;;;;;;10.98;6.78;;;;;;;19.81;36.93;100675.72;1750055;81;21174;-58
2022/04/21 08:56:14;;;;;;;9.35;6.30;;;;;;;19.80;36.98;100675.47;1747307;81;20988;-58
2022/04/21 08:58:42;;;;;;;10.88;6.90;;;;;;;19.82;37.15;100670.98;1750312;81;21850;-58
2022/04/21 09:01:10;;;;;;;12.55;8.40;;;;;;;19.83;37.08;100673.45;1751095;81;21409;-58
2022/04/21 09:03:38;;;;;;;9.53;7.97;;;;;;;19.83;37.01;100669.87;1751671;81;21356;-58
2022/04/21 09:06:06;;;;;;;12.00;9.95;;;;;;;19.81;36.99;100664.68;1752719;81;21278;-58
2022/04/21 09:08:39;;;;;;;15.63;10.08;;;;;;;19.80;36.98;100666.36;1753815;81;21217;-58
2022/04/21 09:11:10;;;;;;;12.65;9.63;;;;;;;19.77;36.97;100669.77;1753158;81;20936;-58
2022/04/21 09:13:41;;;;;;;18.45;11.05;;;;;;;19.76;36.98;100659.84;1728976;81;20881;-58
2022/04/21 09:16:10;;;;;;;13.70;9.98;;;;;;;19.73;36.98;100659.89;1754115;81;20917;-58
2022/04/21 09:18:46;;;;;;;15.53;11.40;;;;;;;19.72;37.02;100656.09;1751920;81;20971;-58
2022/04/21 09:21:16;;;;;;;13.65;10.08;;;;;;;19.70;37.03;100654.20;1751702;81;20889;-58
2022/04/21 09:23:44;;;;;;;19.50;14.68;;;;;;;19.68;37.08;100646.25;1752962;81;20940;-58
2022/04/21 09:26:16;;;;;;;16.27;11.75;;;;;;;19.66;37.07;100648.49;1751533;81;20983;-58
2022/04/21 09:28:55;;;;;;;13.48;11.30;;;;;;;19.65;37.09;100652.38;1749139;81;20971;-58
2022/04/21 09:31:28;;;;;;;13.83;10.18;;;;;;;19.64;37.10;100645.81;1730405;81;20976;-58
2022/04/21 09:33:56;;;;;;;13.83;8.70;;;;;;;19.63;37.11;100647.75;1751714;81;20928;-58
2022/04/21 09:36:24;;;;;;;10.30;8.85;;;;;;;19.62;37.27;100644.73;1701584;81;21089;-58
2022/04/21 09:38:59;;;;;;;13.00;8.70;;;;;;;19.66;37.39;100641.59;1751070;81;20881;-58
2022/04/21 09:41:30;;;;;;;14.65;10.55;;;;;;;19.71;37.47;100641.47;1750126;81;21023;-58
2022/04/21 09:46:59;;;;;;;18.05;12.85;;;;;;;19.77;37.38;100638.02;1750410;81;21348;-58
2022/04/21 09:49:39;;;;;;;18.73;12.93;;;;;;;19.80;37.32;100636.81;1750790;81;20944;-58
2022/04/21 09:52:07;;;;;;;17.25;12.20;;;;;;;19.83;37.25;100636.17;1751780;81;21254;-58
2022/04/21 09:54:35;;;;;;;16.57;13.45;;;;;;;19.85;37.25;100630.35;1751064;81;21357;-58
2022/04/21 09:57:04;;;;;;;19.25;13.90;;;;;;;19.86;37.22;100628.63;1750724;81;21397;-58
2022/04/21 09:59:35;;;;;;;19.90;15.68;;;;;;;19.88;37.18;100629.14;1751034;81;21360;-58
2022/04/21 10:02:04;;;;;;;20.12;14.53;;;;;;;19.90;37.13;100642.05;1749725;81;20850;-58
2022/04/21 10:04:32;;;;;;;18.35;14.45;;;;;;;19.90;37.10;100628.84;1749333;81;20869;-58
2022/04/21 10:07:00;;;;;;;18.48;14.85;;;;;;;19.92;37.08;100621.86;1749252;81;20916;-59
2022/04/21 10:09:34;;;;;;;20.48;15.98;;;;;;;19.93;37.05;100623.49;1749111;81;22007;-58
2022/04/21 10:12:03;;;;;;;19.75;15.13;;;;;;;19.93;36.99;100619.35;1748424;81;21409;-58
2022/04/21 10:14:31;;;;;;;20.25;15.70;;;;;;;19.93;36.94;100621.30;1724579;81;20888;-58
2022/04/21 10:16:57;;;;;;;21.42;16.52;;;;;;;19.92;36.94;100622.42;1753935;81;20983;-58
2022/04/21 10:19:25;;;;;;;18.85;14.33;;;;;;;19.92;36.91;100617.72;1754971;81;21336;-58
2022/04/21 10:21:56;;;;;;;19.37;14.73;;;;;;;19.92;36.88;100614.95;1749584;81;20979;-58
2022/04/21 10:47:39;;;;;;;20.52;14.93;;;;;;;19.84;36.71;100613.53;1738786;79;127070;-82
2022/04/21 10:50:18;;;;;;;22.13;16.60;;;;;;;19.80;36.66;100614.73;1704613;82;21819;-89
2022/04/21 10:58:41;;;;;;;22.95;17.40;;;;;;;19.78;36.69;100607.88;1751875;79;21460;-90
2022/04/21 11:01:20;;;;;;;24.02;17.57;;;;;;;19.78;36.69;100614.78;1746691;80;20979;-88
2022/04/21 11:04:12;;;;;;;22.55;15.63;;;;;;;19.78;36.69;100611.46;1768350;79;20925;-88
2022/04/21 11:06:51;;;;;;;23.65;17.82;;;;;;;19.78;36.71;100615.60;1786278;79;21365;-88
2022/04/21 11:09:47;;;;;;;23.22;17.57;;;;;;;19.80;36.72;100609.77;1762754;79;21808;-88
2022/04/21 11:12:17;;;;;;;20.27;16.30;;;;;;;19.78;36.66;100607.32;1796839;79;21011;-88
2022/04/21 11:14:45;;;;;;;19.40;15.90;;;;;;;19.78;36.71;100603.18;1795553;79;21476;-89
2022/04/21 11:17:19;;;;;;;21.33;16.20;;;;;;;19.79;36.70;100600.67;1780861;79;21022;-90
2022/04/21 11:19:53;;;;;;;21.10;16.15;;;;;;;19.81;36.68;100598.98;1695749;81;20945;-91
2022/04/21 11:22:41;;;;;;;22.00;16.45;;;;;;;19.81;36.68;100599.81;1719752;80;20959;-91
2022/04/21 11:25:09;;;;;;;19.57;16.42;;;;;;;19.81;36.66;100598.42;1742905;81;20976;-91
2022/04/21 11:27:43;;;;;;;22.73;16.35;;;;;;;19.81;36.64;100592.91;1754102;80;20976;-90
2022/04/21 11:30:13;;;;;;;19.57;14.53;;;;;;;19.81;36.60;100597.05;1763235;79;21052;-91
2022/04/21 11:32:50;;;;;;;21.85;16.95;;;;;;;19.80;36.59;100602.31;1726568;81;21008;-90
2022/04/21 11:35:22;;;;;;;19.37;14.75;;;;;;;19.79;36.58;100600.67;1739922;81;21985;-90
2022/04/21 11:37:57;;;;;;;19.73;15.95;;;;;;;19.78;36.61;100597.66;1741920;80;20960;-91
2022/04/21 11:40:30;;;;;;;22.65;15.45;;;;;;;19.78;36.61;100599.59;1755247;80;20972;-92
2022/04/21 11:43:03;;;;;;;19.52;15.10;;;;;;;19.78;36.59;100586.62;1768523;80;20885;-91
2022/04/21 11:45:35;;;;;;;19.70;16.57;;;;;;;19.75;36.55;100585.87;1746893;81;21367;-90
2022/04/21 11:48:12;;;;;;;20.05;16.37;;;;;;;19.72;36.56;100582.94;1767598;80;20928;-91
2022/04/21 11:50:45;;;;;;;20.80;15.65;;;;;;;19.68;36.56;100573.11;1771605;80;20991;-90
2022/04/21 11:53:18;;;;;;;20.08;15.63;;;;;;;19.64;36.58;100572.11;1768979;80;21438;-92
2022/04/21 11:55:45;;;;;;;19.70;15.63;;;;;;;19.63;36.58;100578.75;1770496;80;20929;-91
2022/04/21 11:58:12;;;;;;;21.07;15.23;;;;;;;19.60;36.61;100569.73;1747419;81;21051;-91
2022/04/21 12:08:52;;;;;;;18.27;14.33;;;;;;;19.53;36.69;100565.22;1771724;79;21396;-91
2022/04/21 12:11:21;;;;;;;19.73;14.30;;;;;;;19.51;36.68;100555.08;1748505;81;20866;-91
2022/04/21 12:13:48;;;;;;;18.32;13.93;;;;;;;19.51;36.67;100559.21;1753684;80;21287;-91
2022/04/21 12:16:43;;;;;;;16.12;12.70;;;;;;;19.50;36.67;100568.61;1742542;82;21271;-91
2022/04/21 12:19:32;;;;;;;14.90;12.90;;;;;;;19.49;36.66;100559.52;1767327;79;20875;-90
2022/04/21 12:22:05;;;;;;;15.23;11.97;;;;;;;19.49;36.63;100558.70;1746527;80;20988;-91
2022/04/21 12:24:43;;;;;;;15.20;12.20;;;;;;;19.47;36.63;100561.80;1753345;81;20925;-91
2022/04/21 12:27:17;;;;;;;15.30;12.28;;;;;;;19.47;36.63;100565.11;1752925;81;21027;-91
2022/04/21 12:30:07;;;;;;;15.83;12.53;;;;;;;19.45;36.67;100554.38;1753261;81;21000;-91
2022/04/21 12:32:39;;;;;;;13.75;11.63;;;;;;;19.45;36.68;100557.70;1752844;81;21190;-91
2022/04/21 12:35:08;;;;;;;16.00;12.05;;;;;;;19.45;36.68;100556.33;1735928;81;20940;-91
2022/04/21 12:37:41;;;;;;;14.50;11.35;;;;;;;19.44;36.70;100558.83;1755715;81;21237;-91
2022/04/21 12:40:11;;;;;;;14.70;11.95;;;;;;;19.43;36.68;100558.04;1757196;81;21371;-91
2022/04/21 12:42:38;;;;;;;13.38;10.82;;;;;;;19.43;36.70;100555.84;1765113;80;20929;-92
2022/04/21 12:45:05;;;;;;;13.75;11.03;;;;;;;19.42;36.71;100558.31;1757209;80;21479;-91
2022/04/21 12:47:32;;;;;;;14.47;11.43;;;;;;;19.42;36.71;100545.34;1757088;81;20984;-91
2022/04/21 12:50:08;;;;;;;13.48;10.43;;;;;;;19.42;36.73;100543.14;1710622;80;21004;-90
2022/04/21 12:52:42;;;;;;;12.50;10.05;;;;;;;19.42;36.74;100539.81;1733826;81;21165;-91